createdAt,value
2023-02-28T00:01:28.621Z,4.20
2023-02-28T00:03:55.754Z,4.20
2023-02-28T00:06:22.604Z,4.20
2023-02-28T00:08:49.535Z,4.20
2023-02-28T00:11:21.794Z,4.20
2023-02-28T00:13:48.892Z,4.20
2023-02-28T00:16:17.901Z,4.20
2023-02-28T00:18:44.879Z,4.20
2023-02-28T00:21:12.081Z,4.20
2023-02-28T00:24:04.964Z,4.20
2023-02-28T00:26:31.872Z,4.20
2023-02-28T00:28:58.739Z,4.20
2023-02-28T00:31:29.209Z,4.20
2023-02-28T00:33:56.272Z,4.10
2023-02-28T00:36:23.272Z,4.10
2023-02-28T00:38:50.250Z,4.10
2023-02-28T00:41:17.271Z,4.10
2023-02-28T00:43:50.383Z,4.10
2023-02-28T00:46:17.265Z,4.10
2023-02-28T00:48:44.448Z,4.00
2023-02-28T00:51:11.584Z,4.10
2023-02-28T00:53:38.442Z,4.00
2023-02-28T00:56:08.229Z,4.00
2023-02-28T00:58:35.036Z,4.10
2023-02-28T01:01:02.086Z,4.10
2023-02-28T01:03:29.101Z,4.10
2023-02-28T01:05:56.034Z,4.00
2023-02-28T01:08:23.093Z,4.00
2023-02-28T01:10:51.282Z,4.00
2023-02-28T01:13:18.616Z,4.00
2023-02-28T01:15:52.800Z,3.90
2023-02-28T01:18:20.328Z,3.90
2023-02-28T01:20:47.969Z,3.90
2023-02-28T01:23:16.576Z,3.80
2023-02-28T01:25:43.661Z,3.90
2023-02-28T01:28:11.767Z,3.80
2023-02-28T01:30:38.717Z,3.80
2023-02-28T01:33:07.128Z,3.80
2023-02-28T01:35:37.266Z,3.80
2023-02-28T01:38:20.834Z,3.90
2023-02-28T01:40:48.672Z,3.80
2023-02-28T01:43:22.117Z,3.70
2023-02-28T01:45:53.180Z,3.70
2023-02-28T01:48:22.030Z,3.70
2023-02-28T01:50:49.648Z,3.70
2023-02-28T01:53:19.211Z,3.70
2023-02-28T01:55:47.904Z,3.70
2023-02-28T01:58:15.539Z,3.70
2023-02-28T02:00:43.733Z,3.70
2023-02-28T02:03:15.641Z,3.70
2023-02-28T02:05:48.592Z,3.60
2023-02-28T02:08:17.848Z,3.60
2023-02-28T02:10:54.956Z,3.60
2023-02-28T02:13:22.819Z,3.60
2023-02-28T02:16:08.414Z,3.60
2023-02-28T02:18:40.779Z,3.60
2023-02-28T02:21:10.723Z,3.50
2023-02-28T02:24:00.558Z,3.50
2023-02-28T02:26:36.529Z,3.50
2023-02-28T02:29:06.323Z,3.50
2023-02-28T02:31:53.065Z,3.50
2023-02-28T02:34:29.333Z,3.50
2023-02-28T02:37:01.667Z,3.50
2023-02-28T02:39:49.452Z,3.50
2023-02-28T02:42:21.639Z,3.50
2023-02-28T02:44:51.613Z,3.50
2023-02-28T02:47:20.984Z,3.50
2023-02-28T02:49:52.801Z,3.50
2023-02-28T02:52:23.089Z,3.50
2023-02-28T02:54:56.605Z,3.40
2023-02-28T02:57:31.038Z,3.40
2023-02-28T02:59:58.495Z,3.40
2023-02-28T03:02:27.167Z,3.40
2023-02-28T03:05:01.697Z,3.40
2023-02-28T03:07:28.981Z,3.40
2023-02-28T03:09:57.452Z,3.40
2023-02-28T03:12:47.376Z,3.30
2023-02-28T03:15:25.175Z,3.30
2023-02-28T03:18:09.672Z,3.30
2023-02-28T03:20:46.361Z,3.30
2023-02-28T03:23:19.558Z,3.30
2023-02-28T03:25:47.030Z,3.30
2023-02-28T03:28:18.364Z,3.20
2023-02-28T03:30:57.726Z,3.20
2023-02-28T03:33:40.204Z,3.20
2023-02-28T03:36:11.625Z,3.10
2023-02-28T03:38:45.462Z,3.10
2023-02-28T03:41:42.520Z,3.10
2023-02-28T03:44:16.375Z,3.10
2023-02-28T03:46:47.367Z,3.00
2023-02-28T03:49:23.715Z,3.00
2023-02-28T03:51:51.671Z,3.00
2023-02-28T03:54:25.755Z,3.00
2023-02-28T03:56:55.159Z,3.00
2023-02-28T03:59:54.470Z,2.90
2023-02-28T04:02:21.850Z,2.90
2023-02-28T04:04:50.607Z,2.80
2023-02-28T04:07:25.265Z,2.80
2023-02-28T04:09:52.734Z,2.70
2023-02-28T04:12:19.585Z,2.70
2023-02-28T04:14:46.324Z,2.60
2023-02-28T04:17:13.459Z,2.60
2023-02-28T04:19:40.751Z,2.60
2023-02-28T04:22:09.238Z,2.60
2023-02-28T04:24:36.189Z,2.50
2023-02-28T04:27:03.405Z,2.50
2023-02-28T04:29:33.450Z,2.50
2023-02-28T04:32:01.155Z,2.40
2023-02-28T04:34:28.706Z,2.30
2023-02-28T04:37:12.836Z,2.30
2023-02-28T04:39:42.170Z,2.30
2023-02-28T04:42:09.519Z,2.30
2023-02-28T04:44:36.272Z,2.20
2023-02-28T04:47:23.366Z,2.20
2023-02-28T04:49:52.081Z,2.10
2023-02-28T04:52:25.371Z,2.10
2023-02-28T04:54:52.274Z,2.10
2023-02-28T04:57:25.289Z,2.10
2023-02-28T04:59:52.204Z,2.00
2023-02-28T05:02:19.198Z,2.00
2023-02-28T05:04:46.155Z,1.90
2023-02-28T05:07:13.157Z,1.90
2023-02-28T05:09:40.068Z,1.80
2023-02-28T05:12:07.196Z,1.70
2023-02-28T05:14:34.011Z,1.70
2023-02-28T05:17:00.886Z,1.70
2023-02-28T05:19:27.760Z,1.60
2023-02-28T05:21:55.391Z,1.70
2023-02-28T05:24:24.504Z,1.60
2023-02-28T05:26:57.543Z,1.50
2023-02-28T05:29:25.578Z,1.50
2023-02-28T05:31:52.451Z,1.50
2023-02-28T05:34:26.823Z,1.50
2023-02-28T05:36:53.664Z,1.50
2023-02-28T05:39:20.477Z,1.50
2023-02-28T05:41:47.321Z,1.50
2023-02-28T05:44:14.449Z,1.40
2023-02-28T05:46:41.573Z,1.30
2023-02-28T05:49:08.586Z,1.30
2023-02-28T05:51:40.637Z,1.30
2023-02-28T05:54:07.722Z,1.30
2023-02-28T05:56:40.166Z,1.20
2023-02-28T05:59:07.494Z,1.20
2023-02-28T06:01:39.914Z,1.20
2023-02-28T06:04:14.337Z,1.20
2023-02-28T06:06:47.026Z,1.10
2023-02-28T06:09:14.331Z,1.20
2023-02-28T06:11:41.498Z,1.10
2023-02-28T06:14:15.349Z,1.10
2023-02-28T06:16:44.519Z,1.20
2023-02-28T06:19:11.757Z,1.20
2023-02-28T06:21:42.317Z,1.20
2023-02-28T06:24:09.551Z,1.20
2023-02-28T06:26:36.650Z,1.10
2023-02-28T06:29:04.055Z,1.10
2023-02-28T06:31:31.627Z,1.10
2023-02-28T06:33:58.722Z,1.00
2023-02-28T06:36:33.126Z,1.10
2023-02-28T06:39:02.841Z,1.00
2023-02-28T06:41:36.224Z,1.00
2023-02-28T06:44:18.931Z,1.00
2023-02-28T06:46:46.365Z,1.00
2023-02-28T06:49:13.291Z,1.00
2023-02-28T06:51:41.282Z,1.00
2023-02-28T06:54:20.040Z,1.00
2023-02-28T06:56:49.914Z,1.00
2023-02-28T06:59:17.474Z,1.00
2023-02-28T07:01:44.629Z,1.00
2023-02-28T07:04:16.533Z,1.00
2023-02-28T07:06:44.399Z,1.00
2023-02-28T07:09:12.309Z,1.00
2023-02-28T07:11:39.610Z,1.00
2023-02-28T07:14:06.428Z,1.00
2023-02-28T07:16:33.810Z,1.00
2023-02-28T07:19:01.033Z,1.00
2023-02-28T07:21:29.342Z,1.10
2023-02-28T07:23:57.556Z,1.00
2023-02-28T07:26:24.728Z,1.10
2023-02-28T07:28:55.676Z,1.10
2023-02-28T07:31:57.146Z,1.10
2023-02-28T07:34:52.158Z,1.10
2023-02-28T07:37:24.379Z,1.20
2023-02-28T07:39:54.601Z,1.20
2023-02-28T07:42:22.431Z,1.30
2023-02-28T07:44:52.664Z,1.30
2023-02-28T07:47:19.707Z,1.30
2023-02-28T07:49:46.472Z,1.40
2023-02-28T07:52:13.239Z,1.40
2023-02-28T07:54:40.198Z,1.40
2023-02-28T07:57:09.406Z,1.50
2023-02-28T07:59:36.580Z,1.60
2023-02-28T08:02:03.716Z,1.60
2023-02-28T08:04:32.777Z,1.60
2023-02-28T08:06:59.758Z,1.60
2023-02-28T08:09:27.186Z,1.70
2023-02-28T08:12:03.489Z,1.70
2023-02-28T08:14:30.338Z,1.80
2023-02-28T08:16:57.326Z,1.80
2023-02-28T08:19:24.084Z,1.80
2023-02-28T08:21:51.073Z,1.90
2023-02-28T08:24:17.911Z,1.90
2023-02-28T08:26:47.996Z,2.00
2023-02-28T08:29:14.868Z,2.00
2023-02-28T08:31:42.595Z,2.10
2023-02-28T08:34:10.094Z,2.10
2023-02-28T08:36:36.972Z,2.10
2023-02-28T08:39:06.105Z,2.10
2023-02-28T08:41:32.951Z,2.20
2023-02-28T08:43:59.780Z,2.20
2023-02-28T08:46:26.634Z,2.30
2023-02-28T08:48:54.606Z,2.30
2023-02-28T08:51:27.379Z,2.30
2023-02-28T08:53:55.350Z,2.40
2023-02-28T08:56:22.547Z,2.50
2023-02-28T08:58:50.188Z,2.40
2023-02-28T09:01:18.500Z,2.40
2023-02-28T09:03:47.105Z,2.50
2023-02-28T09:06:14.763Z,2.50
2023-02-28T09:08:42.100Z,2.50
2023-02-28T09:11:09.652Z,2.60
2023-02-28T09:13:36.838Z,2.60
2023-02-28T09:16:05.021Z,2.70
2023-02-28T09:18:32.064Z,2.70
2023-02-28T09:20:59.012Z,2.70
2023-02-28T09:23:26.743Z,2.80
2023-02-28T09:25:54.988Z,2.90
2023-02-28T09:28:22.342Z,2.90
2023-02-28T09:30:51.037Z,3.00
2023-02-28T09:33:18.766Z,2.90
2023-02-28T09:35:45.516Z,3.00
2023-02-28T09:38:12.279Z,3.10
2023-02-28T09:40:46.262Z,3.10
2023-02-28T09:43:15.391Z,3.10
2023-02-28T09:45:43.543Z,3.20
2023-02-28T09:48:16.580Z,3.30
2023-02-28T09:50:46.934Z,3.30
2023-02-28T09:53:22.229Z,3.40
2023-02-28T09:56:12.376Z,3.40
2023-02-28T09:58:45.909Z,3.40
2023-02-28T10:01:22.577Z,3.50
2023-02-28T10:04:09.132Z,3.60
2023-02-28T10:06:50.181Z,3.60
2023-02-28T10:09:21.637Z,3.70
2023-02-28T10:11:49.555Z,3.80
2023-02-28T10:14:16.369Z,3.90
2023-02-28T10:16:48.423Z,3.90
2023-02-28T10:19:15.735Z,3.90
2023-02-28T10:21:45.907Z,4.00
2023-02-28T10:24:18.981Z,4.00
2023-02-28T10:26:46.381Z,4.10
2023-02-28T10:29:13.317Z,4.20
2023-02-28T10:31:41.597Z,4.10
2023-02-28T10:34:08.932Z,4.20
2023-02-28T10:36:36.359Z,4.30
2023-02-28T10:39:23.508Z,4.40
2023-02-28T10:41:50.303Z,4.40
2023-02-28T10:44:24.507Z,4.50
2023-02-28T10:46:51.885Z,4.50
2023-02-28T10:49:21.924Z,4.60
2023-02-28T10:51:50.270Z,4.60
2023-02-28T10:54:19.254Z,4.70
2023-02-28T10:56:46.084Z,4.70
2023-02-28T10:59:35.234Z,4.70
2023-02-28T11:02:02.215Z,4.70
2023-02-28T11:04:37.474Z,4.70
2023-02-28T11:07:05.947Z,4.80
2023-02-28T11:09:40.036Z,4.80
2023-02-28T11:12:08.198Z,4.90
2023-02-28T11:14:40.990Z,5.00
2023-02-28T11:17:34.152Z,5.00
2023-02-28T11:20:04.449Z,5.10
2023-02-28T11:22:34.015Z,5.10
2023-02-28T11:25:02.562Z,5.10
2023-02-28T11:27:32.497Z,5.20
2023-02-28T11:29:59.841Z,5.20
2023-02-28T11:32:29.922Z,5.20
2023-02-28T11:35:12.384Z,5.20
2023-02-28T11:37:39.964Z,5.20
2023-02-28T11:40:13.872Z,5.30
2023-02-28T11:42:43.695Z,5.40
2023-02-28T11:45:23.889Z,5.30
2023-02-28T11:47:51.113Z,5.30
2023-02-28T11:50:24.013Z,5.40
2023-02-28T11:53:14.101Z,5.40
2023-02-28T11:55:57.086Z,5.40
2023-02-28T11:58:23.950Z,5.40
2023-02-28T12:00:58.942Z,5.50
2023-02-28T12:04:04.487Z,5.50
2023-02-28T12:06:51.310Z,5.50
2023-02-28T12:09:36.287Z,5.60
2023-02-28T12:12:06.333Z,5.60
2023-02-28T12:14:51.952Z,5.70
2023-02-28T12:17:39.936Z,5.70
2023-02-28T12:20:19.115Z,5.70
2023-02-28T12:22:48.985Z,5.70
2023-02-28T12:25:34.724Z,5.80
2023-02-28T12:28:01.865Z,5.80
2023-02-28T12:30:33.661Z,5.80
2023-02-28T12:33:03.545Z,5.80
2023-02-28T12:35:36.011Z,5.90
2023-02-28T12:38:09.144Z,5.90
2023-02-28T12:40:56.154Z,5.90
2023-02-28T12:43:26.427Z,5.90
2023-02-28T12:45:56.882Z,5.90
2023-02-28T12:48:34.822Z,5.90
2023-02-28T12:51:08.377Z,5.90
2023-02-28T12:53:39.692Z,6.00
2023-02-28T12:56:15.821Z,5.90
2023-02-28T12:58:53.934Z,6.00
2023-02-28T13:02:07.478Z,6.00
2023-02-28T13:04:40.617Z,6.00
2023-02-28T13:07:37.987Z,6.10
2023-02-28T13:10:08.761Z,6.10
2023-02-28T13:12:36.213Z,6.10
2023-02-28T13:15:13.523Z,6.20
2023-02-28T13:17:49.209Z,6.20
2023-02-28T13:20:18.047Z,6.20
2023-02-28T13:22:46.419Z,6.20
2023-02-28T13:25:32.212Z,6.20
2023-02-28T13:28:01.946Z,6.20
2023-02-28T13:30:47.967Z,6.20
2023-02-28T13:33:20.987Z,6.20
2023-02-28T13:35:47.944Z,6.30
2023-02-28T13:38:24.346Z,6.30
2023-02-28T13:40:51.380Z,6.30
2023-02-28T13:43:22.575Z,6.30
2023-02-28T13:46:24.587Z,6.30
2023-02-28T13:48:52.701Z,6.30
2023-02-28T13:51:42.645Z,6.40
2023-02-28T13:54:28.455Z,6.40
2023-02-28T13:57:06.636Z,6.40
2023-02-28T13:59:39.940Z,6.40
2023-02-28T14:02:27.481Z,6.40
2023-02-28T14:05:07.527Z,6.40
2023-02-28T14:07:39.704Z,6.50
2023-02-28T14:10:09.612Z,6.50
2023-02-28T14:12:59.051Z,6.50
2023-02-28T14:15:26.013Z,6.50
2023-02-28T14:17:54.358Z,6.60
2023-02-28T14:20:27.619Z,6.60
2023-02-28T14:23:17.390Z,6.60
2023-02-28T14:26:07.981Z,6.60
2023-02-28T14:28:40.954Z,6.60
2023-02-28T14:31:08.835Z,6.60
2023-02-28T14:33:54.587Z,6.60
2023-02-28T14:36:27.332Z,6.60
2023-02-28T14:38:57.097Z,6.70
2023-02-28T14:41:23.923Z,6.70
2023-02-28T14:43:58.701Z,6.80
2023-02-28T14:46:28.437Z,6.80
2023-02-28T14:48:58.467Z,6.80
2023-02-28T14:51:25.645Z,6.80
2023-02-28T14:53:57.099Z,6.80
2023-02-28T14:56:25.959Z,6.80
2023-02-28T14:58:54.114Z,6.80
2023-02-28T15:01:23.037Z,6.80
2023-02-28T15:04:01.320Z,6.80
2023-02-28T15:06:35.357Z,6.80
2023-02-28T15:09:09.307Z,6.80
2023-02-28T15:11:36.577Z,6.80
2023-02-28T15:14:04.297Z,6.80
2023-02-28T15:16:32.761Z,6.80
2023-02-28T15:19:02.866Z,6.80
2023-02-28T15:21:37.430Z,6.80
2023-02-28T15:24:07.469Z,6.80
2023-02-28T15:26:38.826Z,6.80
2023-02-28T15:29:06.983Z,6.80
2023-02-28T15:31:53.910Z,6.80
2023-02-28T15:34:36.743Z,6.70
2023-02-28T15:37:07.883Z,6.70
2023-02-28T15:39:42.475Z,6.60
2023-02-28T15:42:13.605Z,6.60
2023-02-28T15:44:40.753Z,6.50
2023-02-28T15:47:15.582Z,6.50
2023-02-28T15:49:50.829Z,6.50
2023-02-28T15:52:19.467Z,6.50
2023-02-28T15:54:47.483Z,6.40
2023-02-28T15:57:16.352Z,6.40
2023-02-28T15:59:46.945Z,6.40
2023-02-28T16:02:16.678Z,6.40
2023-02-28T16:05:00.700Z,6.40
2023-02-28T16:07:27.991Z,6.40
2023-02-28T16:09:55.775Z,6.30
2023-02-28T16:12:25.751Z,6.30
2023-02-28T16:14:53.423Z,6.30
2023-02-28T16:17:25.396Z,6.30
2023-02-28T16:19:52.620Z,6.30
2023-02-28T16:22:19.462Z,6.30
2023-02-28T16:24:46.268Z,6.20
2023-02-28T16:27:32.544Z,6.20
2023-02-28T16:29:59.647Z,6.20
2023-02-28T16:32:26.465Z,6.20
2023-02-28T16:34:53.332Z,6.10
2023-02-28T16:37:21.474Z,6.10
2023-02-28T16:39:49.769Z,6.10
2023-02-28T16:42:25.948Z,6.00
2023-02-28T16:44:53.436Z,6.00
2023-02-28T16:47:20.434Z,6.00
2023-02-28T16:49:48.661Z,5.90
2023-02-28T16:52:15.610Z,5.90
2023-02-28T16:54:42.802Z,5.80
2023-02-28T16:57:24.137Z,5.70
2023-02-28T16:59:51.961Z,5.70
2023-02-28T17:02:20.701Z,5.70
2023-02-28T17:04:47.856Z,5.70
2023-02-28T17:07:17.135Z,5.60
2023-02-28T17:09:47.336Z,5.50
2023-02-28T17:12:15.399Z,5.40
2023-02-28T17:14:42.225Z,5.30
2023-02-28T17:17:11.049Z,5.30
2023-02-28T17:19:39.287Z,5.20
2023-02-28T17:22:06.229Z,5.20
2023-02-28T17:24:33.002Z,5.10
2023-02-28T17:26:59.917Z,5.10
2023-02-28T17:29:29.258Z,5.00
2023-02-28T17:31:58.916Z,4.90
2023-02-28T17:34:27.820Z,4.90
2023-02-28T17:36:54.508Z,4.80
2023-02-28T17:39:25.236Z,4.70
2023-02-28T17:41:52.927Z,4.70
2023-02-28T17:44:20.036Z,4.60
2023-02-28T17:46:47.684Z,4.60
2023-02-28T17:49:14.620Z,4.50
2023-02-28T17:51:43.224Z,4.50
2023-02-28T17:54:10.126Z,4.40
2023-02-28T17:56:36.872Z,4.40
2023-02-28T17:59:04.165Z,4.30
2023-02-28T18:01:31.126Z,4.30
2023-02-28T18:03:58.066Z,4.20
2023-02-28T18:06:28.115Z,4.20
2023-02-28T18:08:55.373Z,4.10
2023-02-28T18:11:24.277Z,4.00
2023-02-28T18:13:52.524Z,3.90
2023-02-28T18:16:22.907Z,3.90
2023-02-28T18:18:53.902Z,3.90
2023-02-28T18:21:23.472Z,3.80
2023-02-28T18:23:54.977Z,3.80
2023-02-28T18:26:22.991Z,3.70
2023-02-28T18:28:49.769Z,3.70
2023-02-28T18:31:44.981Z,3.70
2023-02-28T18:34:31.105Z,3.60
2023-02-28T18:36:57.908Z,3.50
2023-02-28T18:42:50.909Z,3.40
2023-02-28T18:45:24.557Z,3.40
2023-02-28T18:47:54.647Z,3.40
2023-02-28T18:50:21.495Z,3.30
2023-02-28T18:52:49.699Z,3.30
2023-02-28T18:55:18.889Z,3.20
2023-02-28T18:57:46.555Z,3.20
2023-02-28T19:00:37.180Z,3.10
2023-02-28T19:03:25.644Z,3.10
2023-02-28T19:06:10.056Z,3.00
2023-02-28T19:08:44.588Z,3.00
2023-02-28T19:11:16.005Z,2.90
2023-02-28T19:13:43.358Z,2.90
2023-02-28T19:16:12.356Z,2.90
2023-02-28T19:18:39.688Z,2.80
2023-02-28T19:21:07.731Z,2.80
2023-02-28T19:23:36.051Z,2.80
2023-02-28T19:26:10.184Z,2.70
2023-02-28T19:28:38.727Z,2.70
2023-02-28T19:31:06.239Z,2.70
2023-02-28T19:33:33.180Z,2.70
2023-02-28T19:36:01.215Z,2.60
2023-02-28T19:38:27.993Z,2.60
2023-02-28T19:41:05.510Z,2.60
2023-02-28T19:43:32.703Z,2.50
2023-02-28T19:45:59.834Z,2.50
2023-02-28T19:48:28.396Z,2.40
2023-02-28T19:50:59.677Z,2.40
2023-02-28T19:53:27.095Z,2.40
2023-02-28T19:55:54.410Z,2.30
2023-02-28T19:58:21.399Z,2.30
2023-02-28T20:00:48.532Z,2.30
2023-02-28T20:03:15.791Z,2.20
2023-02-28T20:05:43.571Z,2.10
2023-02-28T20:08:10.404Z,2.10
2023-02-28T20:10:37.403Z,2.10
2023-02-28T20:13:04.379Z,2.00
2023-02-28T20:15:36.483Z,2.00
2023-02-28T20:18:04.325Z,1.90
2023-02-28T20:20:31.406Z,1.90
2023-02-28T20:22:58.473Z,1.90
2023-02-28T20:25:25.855Z,1.90
2023-02-28T20:27:52.829Z,1.90
2023-02-28T20:30:22.728Z,1.80
2023-02-28T20:32:49.703Z,1.80
2023-02-28T20:35:16.588Z,1.80
2023-02-28T20:37:44.711Z,1.80
2023-02-28T20:40:12.162Z,1.80
2023-02-28T20:42:39.193Z,1.80
2023-02-28T20:45:06.417Z,1.80
2023-02-28T20:47:33.445Z,1.80
2023-02-28T20:50:00.506Z,1.80
2023-02-28T20:52:27.990Z,1.70
2023-02-28T20:54:55.014Z,1.70
2023-02-28T20:57:21.975Z,1.70
2023-02-28T20:59:49.351Z,1.70
2023-02-28T21:02:17.096Z,1.60
2023-02-28T21:04:44.198Z,1.50
2023-02-28T21:07:11.411Z,1.50
2023-02-28T21:09:38.329Z,1.50
2023-02-28T21:12:05.162Z,1.50
2023-02-28T21:14:32.377Z,1.50
2023-02-28T21:16:59.947Z,1.50
2023-02-28T21:19:26.840Z,1.50
2023-02-28T21:21:54.728Z,1.50
2023-02-28T21:24:22.662Z,1.50
2023-02-28T21:26:49.745Z,1.40
2023-02-28T21:29:20.162Z,1.40
2023-02-28T21:31:55.232Z,1.40
2023-02-28T21:34:28.782Z,1.40
2023-02-28T21:36:56.286Z,1.30
2023-02-28T21:39:26.363Z,1.30
2023-02-28T21:41:53.810Z,1.30
2023-02-28T21:44:22.812Z,1.30
2023-02-28T21:46:52.268Z,1.30
2023-02-28T21:49:19.194Z,1.30
2023-02-28T21:51:46.205Z,1.30
2023-02-28T21:54:13.313Z,1.30
2023-02-28T21:56:40.204Z,1.30
2023-02-28T21:59:09.386Z,1.30
2023-02-28T22:01:40.601Z,1.30
2023-02-28T22:04:08.627Z,1.30
2023-02-28T22:06:37.305Z,1.20
2023-02-28T22:09:06.107Z,1.20
2023-02-28T22:11:34.661Z,1.20
2023-02-28T22:14:01.623Z,1.20
2023-02-28T22:16:33.134Z,1.30
2023-02-28T22:19:07.550Z,1.20
2023-02-28T22:21:35.712Z,1.20
2023-02-28T22:24:05.997Z,1.20
2023-02-28T22:26:33.259Z,1.20
2023-02-28T22:29:00.532Z,1.10
2023-02-28T22:31:28.806Z,1.10
2023-02-28T22:33:56.954Z,1.10
2023-02-28T22:36:24.719Z,1.10
2023-02-28T22:38:51.989Z,1.10
2023-02-28T22:41:20.693Z,1.10
2023-02-28T22:43:52.710Z,1.10
2023-02-28T22:46:25.778Z,1.10
2023-02-28T22:48:52.899Z,1.10
2023-02-28T22:51:21.861Z,1.10
2023-02-28T22:53:49.563Z,1.10
2023-02-28T22:56:17.490Z,1.00
2023-02-28T22:58:48.280Z,1.00
2023-02-28T23:01:16.698Z,1.00
2023-02-28T23:03:47.301Z,1.00
2023-02-28T23:06:25.573Z,1.00
2023-02-28T23:08:54.902Z,1.10
2023-02-28T23:11:23.951Z,1.10
2023-02-28T23:14:00.645Z,1.00
2023-02-28T23:16:31.088Z,1.00
2023-02-28T23:18:58.828Z,1.00
2023-02-28T23:21:26.005Z,0.90
2023-02-28T23:23:53.564Z,0.90
2023-02-28T23:26:20.504Z,0.90
2023-02-28T23:28:48.043Z,0.90
2023-02-28T23:31:15.016Z,0.90
2023-02-28T23:33:42.189Z,0.80
2023-02-28T23:36:12.364Z,0.90
2023-02-28T23:38:42.669Z,0.80
2023-02-28T23:41:10.546Z,0.80
2023-02-28T23:43:38.464Z,0.80
2023-02-28T23:46:05.370Z,0.80
2023-02-28T23:48:32.764Z,0.80
2023-02-28T23:51:08.338Z,0.80
2023-02-28T23:53:39.191Z,0.80
2023-02-28T23:56:07.412Z,0.70
2023-02-28T23:58:34.335Z,0.80
